createdAt,value
2022-08-26T03:26:25.495Z,97383.98
2022-08-26T03:29:14.600Z,97383.89
2022-08-26T03:31:44.767Z,97382.59
2022-08-26T03:34:20.374Z,97389.64
2022-08-26T03:36:53.825Z,97390.09
2022-08-26T03:39:24.908Z,97387.05
2022-08-26T03:42:06.119Z,97385.23
2022-08-26T03:44:36.231Z,97384.58
2022-08-26T03:47:10.945Z,97385.90
2022-08-26T03:49:43.504Z,97382.59
2022-08-26T03:52:15.512Z,97389.83
2022-08-26T03:54:55.134Z,97387.27
2022-08-26T03:57:25.534Z,97382.73
2022-08-26T03:59:57.621Z,97387.14
2022-08-26T04:02:28.050Z,97387.96
2022-08-26T04:05:13.880Z,97384.69
2022-08-26T04:07:45.527Z,97390.34
2022-08-26T04:10:35.592Z,97386.27
2022-08-26T04:13:06.769Z,97386.11
2022-08-26T04:15:44.753Z,97381.92
2022-08-26T04:18:16.508Z,97384.50
2022-08-26T04:20:49.630Z,97384.54
2022-08-26T04:23:26.117Z,97388.21
2022-08-26T04:25:54.737Z,97388.92
2022-08-26T04:29:25.603Z,97390.73
2022-08-26T07:55:14.676Z,97322.44
2022-08-26T07:57:57.093Z,97320.91
2022-08-26T08:00:59.496Z,97320.98
2022-08-26T08:03:30.510Z,97320.98
2022-08-26T08:06:10.281Z,97314.61
2022-08-26T08:08:40.746Z,97317.59
2022-08-26T08:11:10.752Z,97307.20
2022-08-26T08:13:59.287Z,97305.39
2022-08-26T08:16:32.435Z,97299.02
2022-08-26T08:19:05.341Z,97297.48
2022-08-26T08:21:35.992Z,97296.27
2022-08-26T08:24:07.520Z,97292.13
2022-08-26T08:26:38.605Z,97288.02
2022-08-26T08:29:08.550Z,97285.02
2022-08-26T08:31:56.924Z,97283.14
2022-08-26T08:34:28.713Z,97281.67
2022-08-26T08:36:58.094Z,97281.07
2022-08-26T08:39:30.880Z,97280.67
2022-08-26T08:42:35.508Z,97279.83
2022-08-26T08:45:17.141Z,97278.53
2022-08-26T08:47:54.927Z,97267.23
2022-08-26T08:50:33.352Z,97266.47
2022-08-26T08:53:21.276Z,97263.42
2022-08-26T08:56:32.769Z,97257.45
2022-08-26T08:59:39.278Z,97257.96
2022-08-26T09:02:42.462Z,97256.89
2022-08-26T09:05:25.408Z,97258.73
2022-08-26T09:08:06.549Z,97253.84
2022-08-26T09:10:54.020Z,97259.75
2022-08-26T09:13:26.224Z,97252.26
2022-08-26T09:16:42.870Z,97254.50
2022-08-26T09:19:33.632Z,97250.69
2022-08-26T09:22:06.984Z,97244.88
2022-08-26T09:24:41.853Z,97244.98
2022-08-26T09:27:44.359Z,97237.56
2022-08-26T09:30:22.607Z,97235.19
2022-08-26T09:33:11.117Z,97232.10
2022-08-26T09:35:46.013Z,97230.91
2022-08-26T09:38:28.027Z,97222.08
2022-08-26T09:41:05.129Z,97221.71
2022-08-26T09:44:08.566Z,97219.70
2022-08-26T09:47:01.879Z,97220.91
2022-08-26T09:50:00.401Z,97218.86
2022-08-26T09:52:32.629Z,97214.73
2022-08-26T09:55:12.887Z,97215.59
2022-08-26T09:57:59.032Z,97211.67
2022-08-26T10:00:54.793Z,97216.45
2022-08-26T10:03:28.660Z,97209.58
2022-08-26T10:06:08.105Z,97204.14
2022-08-26T10:08:44.095Z,97214.20
2022-08-26T10:11:49.050Z,97212.11
2022-08-26T10:17:35.508Z,97203.83
2022-08-26T10:20:25.308Z,97202.90
2022-08-26T10:23:16.159Z,97197.28
2022-08-26T10:26:01.885Z,97203.20
2022-08-26T10:28:55.244Z,97202.41
2022-08-26T10:32:04.127Z,97196.95
2022-08-26T10:34:50.627Z,97197.69
2022-08-26T10:41:01.279Z,97190.14
2022-08-26T10:44:07.854Z,97189.16
2022-08-26T10:47:02.975Z,97190.52
2022-08-26T10:49:40.936Z,97186.52
2022-08-26T10:52:33.604Z,97190.61
2022-08-26T10:55:17.584Z,97181.80
2022-08-26T10:58:26.159Z,97177.79
2022-08-26T11:01:32.484Z,97178.27
2022-08-26T11:04:50.032Z,97177.45
2022-08-26T11:07:36.127Z,97169.02
2022-08-26T11:10:35.399Z,97167.02
2022-08-26T11:13:06.445Z,97165.43
2022-08-26T11:15:39.708Z,97159.06
2022-08-26T11:18:31.583Z,97161.80
2022-08-26T11:21:04.185Z,97163.39
2022-08-26T11:23:45.773Z,97160.49
2022-08-26T11:26:55.159Z,97159.64
2022-08-26T11:30:04.129Z,97167.10
2022-08-26T11:32:40.724Z,97163.34
2022-08-26T11:35:34.574Z,97165.25
2022-08-26T11:38:22.346Z,97160.34
2022-08-26T11:41:10.826Z,97164.10
2022-08-26T11:43:59.009Z,97161.88
2022-08-26T11:46:36.689Z,97154.54
2022-08-26T11:49:07.768Z,97148.30
2022-08-26T11:51:40.921Z,97148.31
2022-08-26T11:54:35.605Z,97142.82
2022-08-26T11:57:12.080Z,97142.48
2022-08-26T11:59:42.855Z,97139.35
2022-08-26T12:02:20.352Z,97141.56
2022-08-26T12:04:55.639Z,97133.85
